sensor_id;sensor_type;location;lat;lon;timestamp;P1;durP1;ratioP1;P2;durP2;ratioP2
20232;SDS011;37438;55.674;13.074;2023-12-28T00:00:56;13.88;;;2.95;;
20232;SDS011;37438;55.674;13.074;2023-12-28T00:04:02;14.50;;;5.00;;
20232;SDS011;37438;55.674;13.074;2023-12-28T00:10:12;18.88;;;3.72;;
20232;SDS011;37438;55.674;13.074;2023-12-28T00:13:17;9.43;;;2.67;;
20232;SDS011;37438;55.674;13.074;2023-12-28T00:16:21;19.15;;;3.28;;
20232;SDS011;37438;55.674;13.074;2023-12-28T00:19:26;12.60;;;2.05;;
20232;SDS011;37438;55.674;13.074;2023-12-28T00:22:31;6.90;;;2.35;;
20232;SDS011;37438;55.674;13.074;2023-12-28T00:25:36;8.55;;;2.55;;
20232;SDS011;37438;55.674;13.074;2023-12-28T00:28:41;6.10;;;1.38;;
20232;SDS011;37438;55.674;13.074;2023-12-28T00:31:46;10.63;;;1.92;;
20232;SDS011;37438;55.674;13.074;2023-12-28T00:34:51;5.25;;;1.85;;
20232;SDS011;37438;55.674;13.074;2023-12-28T00:37:56;9.95;;;1.67;;
20232;SDS011;37438;55.674;13.074;2023-12-28T00:41:01;13.20;;;1.95;;
20232;SDS011;37438;55.674;13.074;2023-12-28T00:44:06;14.90;;;2.53;;
20232;SDS011;37438;55.674;13.074;2023-12-28T00:47:13;12.98;;;2.53;;
20232;SDS011;37438;55.674;13.074;2023-12-28T00:50:18;8.15;;;1.80;;
20232;SDS011;37438;55.674;13.074;2023-12-28T00:53:23;10.55;;;2.20;;
20232;SDS011;37438;55.674;13.074;2023-12-28T00:56:28;11.43;;;1.92;;
20232;SDS011;37438;55.674;13.074;2023-12-28T00:59:33;7.18;;;1.63;;
20232;SDS011;37438;55.674;13.074;2023-12-28T01:02:38;4.97;;;2.47;;
20232;SDS011;37438;55.674;13.074;2023-12-28T01:05:43;7.53;;;1.85;;
20232;SDS011;37438;55.674;13.074;2023-12-28T01:08:51;15.98;;;3.22;;
20232;SDS011;37438;55.674;13.074;2023-12-28T01:11:56;5.43;;;1.45;;
20232;SDS011;37438;55.674;13.074;2023-12-28T01:15:01;14.43;;;2.08;;
20232;SDS011;37438;55.674;13.074;2023-12-28T01:18:06;15.40;;;3.95;;
20232;SDS011;37438;55.674;13.074;2023-12-28T01:21:12;3.00;;;0.93;;
20232;SDS011;37438;55.674;13.074;2023-12-28T01:24:17;10.75;;;2.17;;
20232;SDS011;37438;55.674;13.074;2023-12-28T01:27:22;8.50;;;2.00;;
20232;SDS011;37438;55.674;13.074;2023-12-28T01:30:26;15.38;;;2.83;;
20232;SDS011;37438;55.674;13.074;2023-12-28T01:33:31;18.48;;;3.08;;
20232;SDS011;37438;55.674;13.074;2023-12-28T01:36:36;13.68;;;2.78;;
20232;SDS011;37438;55.674;13.074;2023-12-28T01:39:45;21.30;;;4.15;;
20232;SDS011;37438;55.674;13.074;2023-12-28T01:42:50;8.25;;;3.10;;
20232;SDS011;37438;55.674;13.074;2023-12-28T01:45:55;11.50;;;2.70;;
20232;SDS011;37438;55.674;13.074;2023-12-28T01:52:05;12.43;;;3.77;;
20232;SDS011;37438;55.674;13.074;2023-12-28T01:55:11;10.77;;;2.88;;
20232;SDS011;37438;55.674;13.074;2023-12-28T01:58:16;17.88;;;4.15;;
20232;SDS011;37438;55.674;13.074;2023-12-28T02:01:21;17.15;;;4.35;;
20232;SDS011;37438;55.674;13.074;2023-12-28T02:04:29;13.32;;;3.40;;
20232;SDS011;37438;55.674;13.074;2023-12-28T02:10:39;17.05;;;3.65;;
20232;SDS011;37438;55.674;13.074;2023-12-28T02:13:44;9.55;;;2.47;;
20232;SDS011;37438;55.674;13.074;2023-12-28T02:17:01;19.77;;;5.15;;
20232;SDS011;37438;55.674;13.074;2023-12-28T02:20:08;14.20;;;4.30;;
20232;SDS011;37438;55.674;13.074;2023-12-28T02:23:14;23.08;;;4.57;;
20232;SDS011;37438;55.674;13.074;2023-12-28T02:26:20;15.60;;;4.65;;
20232;SDS011;37438;55.674;13.074;2023-12-28T02:29:24;21.35;;;6.03;;
20232;SDS011;37438;55.674;13.074;2023-12-28T02:33:15;15.02;;;4.20;;
20232;SDS011;37438;55.674;13.074;2023-12-28T02:35:59;12.52;;;4.15;;
20232;SDS011;37438;55.674;13.074;2023-12-28T02:39:05;12.73;;;4.00;;
20232;SDS011;37438;55.674;13.074;2023-12-28T02:42:11;16.13;;;3.95;;
20232;SDS011;37438;55.674;13.074;2023-12-28T02:45:17;13.93;;;5.03;;
20232;SDS011;37438;55.674;13.074;2023-12-28T02:48:23;16.77;;;4.47;;
20232;SDS011;37438;55.674;13.074;2023-12-28T02:51:30;8.20;;;2.20;;
20232;SDS011;37438;55.674;13.074;2023-12-28T02:54:35;14.75;;;3.15;;
20232;SDS011;37438;55.674;13.074;2023-12-28T02:57:40;16.05;;;3.72;;
20232;SDS011;37438;55.674;13.074;2023-12-28T03:00:44;10.52;;;3.13;;
20232;SDS011;37438;55.674;13.074;2023-12-28T03:03:49;11.60;;;3.90;;
20232;SDS011;37438;55.674;13.074;2023-12-28T03:06:54;15.60;;;3.38;;
20232;SDS011;37438;55.674;13.074;2023-12-28T03:09:59;12.25;;;3.22;;
20232;SDS011;37438;55.674;13.074;2023-12-28T03:13:04;14.13;;;3.80;;
20232;SDS011;37438;55.674;13.074;2023-12-28T03:16:09;18.83;;;4.40;;
20232;SDS011;37438;55.674;13.074;2023-12-28T03:19:14;13.18;;;4.00;;
20232;SDS011;37438;55.674;13.074;2023-12-28T03:22:19;14.15;;;4.22;;
20232;SDS011;37438;55.674;13.074;2023-12-28T03:25:24;12.63;;;3.95;;
20232;SDS011;37438;55.674;13.074;2023-12-28T03:28:29;15.50;;;4.15;;
20232;SDS011;37438;55.674;13.074;2023-12-28T03:31:38;9.80;;;3.65;;
20232;SDS011;37438;55.674;13.074;2023-12-28T03:34:43;11.75;;;4.03;;
20232;SDS011;37438;55.674;13.074;2023-12-28T03:37:48;15.48;;;4.32;;
20232;SDS011;37438;55.674;13.074;2023-12-28T03:40:53;16.48;;;5.47;;
20232;SDS011;37438;55.674;13.074;2023-12-28T03:43:58;18.58;;;4.65;;
20232;SDS011;37438;55.674;13.074;2023-12-28T03:47:04;15.10;;;5.50;;
20232;SDS011;37438;55.674;13.074;2023-12-28T03:50:09;16.00;;;6.07;;
20232;SDS011;37438;55.674;13.074;2023-12-28T03:53:14;17.38;;;7.43;;
20232;SDS011;37438;55.674;13.074;2023-12-28T03:56:23;31.75;;;7.57;;
20232;SDS011;37438;55.674;13.074;2023-12-28T03:59:30;22.42;;;8.27;;
20232;SDS011;37438;55.674;13.074;2023-12-28T04:02:34;23.83;;;7.60;;
20232;SDS011;37438;55.674;13.074;2023-12-28T04:05:39;19.23;;;7.28;;
20232;SDS011;37438;55.674;13.074;2023-12-28T04:08:44;16.95;;;6.68;;
20232;SDS011;37438;55.674;13.074;2023-12-28T04:14:54;26.95;;;8.70;;
20232;SDS011;37438;55.674;13.074;2023-12-28T04:17:59;25.88;;;8.00;;
20232;SDS011;37438;55.674;13.074;2023-12-28T04:24:10;24.48;;;7.28;;
20232;SDS011;37438;55.674;13.074;2023-12-28T04:27:15;13.73;;;5.75;;
20232;SDS011;37438;55.674;13.074;2023-12-28T04:30:21;20.77;;;6.63;;
20232;SDS011;37438;55.674;13.074;2023-12-28T04:33:26;22.15;;;7.60;;
20232;SDS011;37438;55.674;13.074;2023-12-28T04:36:30;18.45;;;6.88;;
20232;SDS011;37438;55.674;13.074;2023-12-28T04:39:35;9.68;;;5.82;;
20232;SDS011;37438;55.674;13.074;2023-12-28T04:42:41;18.60;;;6.32;;
20232;SDS011;37438;55.674;13.074;2023-12-28T04:45:46;28.58;;;7.75;;
20232;SDS011;37438;55.674;13.074;2023-12-28T04:48:51;23.10;;;6.68;;
20232;SDS011;37438;55.674;13.074;2023-12-28T04:51:56;15.48;;;6.68;;
20232;SDS011;37438;55.674;13.074;2023-12-28T04:55:01;14.15;;;5.80;;
20232;SDS011;37438;55.674;13.074;2023-12-28T04:58:05;14.85;;;5.65;;
20232;SDS011;37438;55.674;13.074;2023-12-28T05:04:16;23.83;;;6.50;;
20232;SDS011;37438;55.674;13.074;2023-12-28T05:07:21;29.42;;;8.20;;
20232;SDS011;37438;55.674;13.074;2023-12-28T05:10:26;18.73;;;7.10;;
20232;SDS011;37438;55.674;13.074;2023-12-28T05:13:31;19.35;;;5.85;;
20232;SDS011;37438;55.674;13.074;2023-12-28T05:16:36;18.80;;;7.18;;
20232;SDS011;37438;55.674;13.074;2023-12-28T05:19:41;15.15;;;5.95;;
20232;SDS011;37438;55.674;13.074;2023-12-28T05:22:46;28.80;;;8.15;;
20232;SDS011;37438;55.674;13.074;2023-12-28T05:28:56;17.75;;;5.90;;
20232;SDS011;37438;55.674;13.074;2023-12-28T05:32:01;12.98;;;6.50;;
20232;SDS011;37438;55.674;13.074;2023-12-28T05:35:06;13.45;;;7.25;;
20232;SDS011;37438;55.674;13.074;2023-12-28T05:38:11;11.02;;;5.25;;
20232;SDS011;37438;55.674;13.074;2023-12-28T05:41:16;13.68;;;6.50;;
20232;SDS011;37438;55.674;13.074;2023-12-28T05:44:21;17.10;;;5.47;;
20232;SDS011;37438;55.674;13.074;2023-12-28T05:47:26;13.35;;;7.15;;
20232;SDS011;37438;55.674;13.074;2023-12-28T05:50:31;10.90;;;5.75;;
20232;SDS011;37438;55.674;13.074;2023-12-28T05:53:36;18.20;;;5.05;;
20232;SDS011;37438;55.674;13.074;2023-12-28T05:56:41;13.48;;;5.60;;
20232;SDS011;37438;55.674;13.074;2023-12-28T05:59:46;13.50;;;5.70;;
20232;SDS011;37438;55.674;13.074;2023-12-28T06:05:56;16.33;;;5.30;;
20232;SDS011;37438;55.674;13.074;2023-12-28T06:09:00;15.38;;;5.68;;
20232;SDS011;37438;55.674;13.074;2023-12-28T06:12:07;15.63;;;6.32;;
20232;SDS011;37438;55.674;13.074;2023-12-28T06:15:11;13.98;;;5.20;;
20232;SDS011;37438;55.674;13.074;2023-12-28T06:21:21;17.13;;;6.15;;
20232;SDS011;37438;55.674;13.074;2023-12-28T06:27:31;14.30;;;5.22;;
20232;SDS011;37438;55.674;13.074;2023-12-28T06:30:36;10.43;;;5.32;;
20232;SDS011;37438;55.674;13.074;2023-12-28T06:36:47;10.32;;;5.18;;
20232;SDS011;37438;55.674;13.074;2023-12-28T06:39:52;12.13;;;6.20;;
20232;SDS011;37438;55.674;13.074;2023-12-28T06:42:57;13.73;;;5.38;;
20232;SDS011;37438;55.674;13.074;2023-12-28T06:46:02;12.93;;;4.95;;
20232;SDS011;37438;55.674;13.074;2023-12-28T06:49:07;12.07;;;5.20;;
20232;SDS011;37438;55.674;13.074;2023-12-28T06:52:14;10.82;;;5.03;;
20232;SDS011;37438;55.674;13.074;2023-12-28T06:55:20;13.10;;;4.43;;
20232;SDS011;37438;55.674;13.074;2023-12-28T06:58:25;9.45;;;4.70;;
20232;SDS011;37438;55.674;13.074;2023-12-28T07:01:29;8.85;;;5.22;;
20232;SDS011;37438;55.674;13.074;2023-12-28T07:04:34;12.55;;;6.03;;
20232;SDS011;37438;55.674;13.074;2023-12-28T07:07:39;11.27;;;4.68;;
20232;SDS011;37438;55.674;13.074;2023-12-28T07:10:44;11.18;;;5.20;;
20232;SDS011;37438;55.674;13.074;2023-12-28T07:13:49;15.07;;;6.22;;
20232;SDS011;37438;55.674;13.074;2023-12-28T07:19:58;16.08;;;6.25;;
20232;SDS011;37438;55.674;13.074;2023-12-28T07:23:04;20.38;;;6.00;;
20232;SDS011;37438;55.674;13.074;2023-12-28T07:26:09;11.00;;;4.63;;
20232;SDS011;37438;55.674;13.074;2023-12-28T07:29:13;15.85;;;5.35;;
20232;SDS011;37438;55.674;13.074;2023-12-28T07:32:18;16.23;;;5.75;;
20232;SDS011;37438;55.674;13.074;2023-12-28T07:35:24;11.75;;;4.90;;
20232;SDS011;37438;55.674;13.074;2023-12-28T07:38:29;11.25;;;4.53;;
20232;SDS011;37438;55.674;13.074;2023-12-28T07:41:34;13.25;;;4.75;;
20232;SDS011;37438;55.674;13.074;2023-12-28T07:44:39;17.95;;;4.55;;
20232;SDS011;37438;55.674;13.074;2023-12-28T07:47:44;15.95;;;5.32;;
20232;SDS011;37438;55.674;13.074;2023-12-28T07:50:49;17.10;;;4.65;;
20232;SDS011;37438;55.674;13.074;2023-12-28T07:53:55;11.13;;;3.75;;
20232;SDS011;37438;55.674;13.074;2023-12-28T07:57:00;17.75;;;4.82;;
20232;SDS011;37438;55.674;13.074;2023-12-28T08:00:05;13.88;;;4.57;;
20232;SDS011;37438;55.674;13.074;2023-12-28T08:06:16;17.45;;;4.65;;
20232;SDS011;37438;55.674;13.074;2023-12-28T08:12:26;16.23;;;5.67;;
20232;SDS011;37438;55.674;13.074;2023-12-28T08:15:33;18.08;;;4.45;;
20232;SDS011;37438;55.674;13.074;2023-12-28T08:18:38;15.80;;;3.47;;
20232;SDS011;37438;55.674;13.074;2023-12-28T08:21:43;15.35;;;3.15;;
20232;SDS011;37438;55.674;13.074;2023-12-28T08:24:48;19.30;;;5.10;;
20232;SDS011;37438;55.674;13.074;2023-12-28T08:30:58;9.05;;;2.83;;
20232;SDS011;37438;55.674;13.074;2023-12-28T08:34:03;11.18;;;4.35;;
20232;SDS011;37438;55.674;13.074;2023-12-28T08:37:07;10.00;;;3.28;;
20232;SDS011;37438;55.674;13.074;2023-12-28T08:43:17;11.20;;;3.53;;
20232;SDS011;37438;55.674;13.074;2023-12-28T08:49:28;15.65;;;3.83;;
20232;SDS011;37438;55.674;13.074;2023-12-28T08:52:33;14.05;;;4.90;;
20232;SDS011;37438;55.674;13.074;2023-12-28T08:58:46;16.88;;;3.60;;
20232;SDS011;37438;55.674;13.074;2023-12-28T09:01:55;19.20;;;3.72;;
20232;SDS011;37438;55.674;13.074;2023-12-28T09:04:59;11.57;;;3.50;;
20232;SDS011;37438;55.674;13.074;2023-12-28T09:08:04;8.35;;;3.22;;
20232;SDS011;37438;55.674;13.074;2023-12-28T09:14:15;11.25;;;3.28;;
20232;SDS011;37438;55.674;13.074;2023-12-28T09:17:23;15.82;;;4.07;;
20232;SDS011;37438;55.674;13.074;2023-12-28T09:20:28;14.30;;;2.90;;
20232;SDS011;37438;55.674;13.074;2023-12-28T09:26:39;11.63;;;3.25;;
20232;SDS011;37438;55.674;13.074;2023-12-28T09:32:48;9.88;;;2.90;;
20232;SDS011;37438;55.674;13.074;2023-12-28T09:35:53;20.30;;;5.30;;
20232;SDS011;37438;55.674;13.074;2023-12-28T09:38:58;40.75;;;5.82;;
20232;SDS011;37438;55.674;13.074;2023-12-28T09:42:04;27.83;;;3.60;;
20232;SDS011;37438;55.674;13.074;2023-12-28T09:45:09;10.02;;;2.42;;
20232;SDS011;37438;55.674;13.074;2023-12-28T09:48:19;10.45;;;2.70;;
20232;SDS011;37438;55.674;13.074;2023-12-28T09:51:27;13.65;;;3.30;;
20232;SDS011;37438;55.674;13.074;2023-12-28T09:54:32;27.27;;;5.50;;
20232;SDS011;37438;55.674;13.074;2023-12-28T09:57:38;21.73;;;3.88;;
20232;SDS011;37438;55.674;13.074;2023-12-28T10:00:45;11.77;;;3.20;;
20232;SDS011;37438;55.674;13.074;2023-12-28T10:03:49;12.23;;;2.97;;
20232;SDS011;37438;55.674;13.074;2023-12-28T10:06:54;8.63;;;2.50;;
20232;SDS011;37438;55.674;13.074;2023-12-28T10:09:59;10.02;;;3.20;;
20232;SDS011;37438;55.674;13.074;2023-12-28T10:13:05;12.35;;;3.47;;
20232;SDS011;37438;55.674;13.074;2023-12-28T10:16:12;18.73;;;4.40;;
20232;SDS011;37438;55.674;13.074;2023-12-28T10:19:21;16.05;;;4.60;;
20232;SDS011;37438;55.674;13.074;2023-12-28T10:22:26;19.08;;;6.15;;
20232;SDS011;37438;55.674;13.074;2023-12-28T10:25:32;20.85;;;5.28;;
20232;SDS011;37438;55.674;13.074;2023-12-28T10:28:36;16.63;;;4.40;;
20232;SDS011;37438;55.674;13.074;2023-12-28T10:31:43;28.40;;;5.18;;
20232;SDS011;37438;55.674;13.074;2023-12-28T10:34:49;23.77;;;5.18;;
20232;SDS011;37438;55.674;13.074;2023-12-28T10:37:54;24.10;;;6.85;;
20232;SDS011;37438;55.674;13.074;2023-12-28T10:41:06;17.05;;;4.53;;
20232;SDS011;37438;55.674;13.074;2023-12-28T10:44:11;29.60;;;6.20;;
20232;SDS011;37438;55.674;13.074;2023-12-28T10:47:18;17.52;;;4.93;;
20232;SDS011;37438;55.674;13.074;2023-12-28T10:50:24;19.98;;;4.03;;
20232;SDS011;37438;55.674;13.074;2023-12-28T10:53:38;24.23;;;5.82;;
20232;SDS011;37438;55.674;13.074;2023-12-28T10:56:46;16.47;;;3.63;;
20232;SDS011;37438;55.674;13.074;2023-12-28T11:02:58;26.83;;;5.10;;
20232;SDS011;37438;55.674;13.074;2023-12-28T11:06:04;17.80;;;3.53;;
20232;SDS011;37438;55.674;13.074;2023-12-28T11:09:10;23.80;;;4.60;;
20232;SDS011;37438;55.674;13.074;2023-12-28T11:12:15;22.27;;;5.55;;
20232;SDS011;37438;55.674;13.074;2023-12-28T11:15:24;24.08;;;4.75;;
20232;SDS011;37438;55.674;13.074;2023-12-28T11:18:30;17.70;;;4.80;;
20232;SDS011;37438;55.674;13.074;2023-12-28T11:21:36;18.75;;;4.47;;
20232;SDS011;37438;55.674;13.074;2023-12-28T11:24:41;20.10;;;4.60;;
20232;SDS011;37438;55.674;13.074;2023-12-28T11:27:47;16.73;;;3.15;;
20232;SDS011;37438;55.674;13.074;2023-12-28T11:30:52;18.67;;;3.13;;
20232;SDS011;37438;55.674;13.074;2023-12-28T11:33:56;21.73;;;4.65;;
20232;SDS011;37438;55.674;13.074;2023-12-28T11:37:08;25.58;;;4.53;;
20232;SDS011;37438;55.674;13.074;2023-12-28T11:40:16;23.85;;;5.50;;
20232;SDS011;37438;55.674;13.074;2023-12-28T11:43:22;27.70;;;5.32;;
20232;SDS011;37438;55.674;13.074;2023-12-28T11:46:28;21.20;;;4.70;;
20232;SDS011;37438;55.674;13.074;2023-12-28T11:49:33;21.30;;;4.85;;
20232;SDS011;37438;55.674;13.074;2023-12-28T11:52:38;28.08;;;6.32;;
20232;SDS011;37438;55.674;13.074;2023-12-28T11:55:43;25.80;;;7.60;;
20232;SDS011;37438;55.674;13.074;2023-12-28T11:58:48;28.30;;;6.55;;
20232;SDS011;37438;55.674;13.074;2023-12-28T12:01:53;38.40;;;7.38;;
20232;SDS011;37438;55.674;13.074;2023-12-28T12:04:59;19.98;;;5.18;;
20232;SDS011;37438;55.674;13.074;2023-12-28T12:08:06;24.65;;;5.97;;
20232;SDS011;37438;55.674;13.074;2023-12-28T12:11:18;38.15;;;6.07;;
20232;SDS011;37438;55.674;13.074;2023-12-28T12:14:23;34.38;;;6.25;;
20232;SDS011;37438;55.674;13.074;2023-12-28T12:17:28;30.67;;;5.55;;
20232;SDS011;37438;55.674;13.074;2023-12-28T12:20:33;31.67;;;5.20;;
20232;SDS011;37438;55.674;13.074;2023-12-28T12:26:45;34.15;;;5.95;;
20232;SDS011;37438;55.674;13.074;2023-12-28T12:29:50;30.38;;;5.88;;
20232;SDS011;37438;55.674;13.074;2023-12-28T12:32:55;38.20;;;6.95;;
20232;SDS011;37438;55.674;13.074;2023-12-28T12:36:01;45.13;;;8.38;;
20232;SDS011;37438;55.674;13.074;2023-12-28T12:39:06;49.92;;;8.05;;
20232;SDS011;37438;55.674;13.074;2023-12-28T12:42:13;46.35;;;8.13;;
20232;SDS011;37438;55.674;13.074;2023-12-28T12:48:22;49.30;;;7.82;;
20232;SDS011;37438;55.674;13.074;2023-12-28T12:51:27;48.00;;;7.82;;
20232;SDS011;37438;55.674;13.074;2023-12-28T12:54:33;37.15;;;5.88;;
20232;SDS011;37438;55.674;13.074;2023-12-28T12:57:38;34.90;;;4.60;;
20232;SDS011;37438;55.674;13.074;2023-12-28T13:00:44;32.38;;;5.32;;
20232;SDS011;37438;55.674;13.074;2023-12-28T13:03:50;34.75;;;5.25;;
20232;SDS011;37438;55.674;13.074;2023-12-28T13:06:56;37.63;;;6.78;;
20232;SDS011;37438;55.674;13.074;2023-12-28T13:10:01;20.83;;;5.13;;
20232;SDS011;37438;55.674;13.074;2023-12-28T13:13:09;38.17;;;6.93;;
20232;SDS011;37438;55.674;13.074;2023-12-28T13:16:14;37.67;;;6.97;;
20232;SDS011;37438;55.674;13.074;2023-12-28T13:19:20;38.22;;;6.03;;
20232;SDS011;37438;55.674;13.074;2023-12-28T13:22:25;26.98;;;4.43;;
20232;SDS011;37438;55.674;13.074;2023-12-28T13:25:30;34.67;;;7.45;;
20232;SDS011;37438;55.674;13.074;2023-12-28T13:28:35;34.15;;;5.75;;
20232;SDS011;37438;55.674;13.074;2023-12-28T13:31:40;33.95;;;6.03;;
20232;SDS011;37438;55.674;13.074;2023-12-28T13:37:49;39.95;;;5.80;;
20232;SDS011;37438;55.674;13.074;2023-12-28T13:40:54;36.03;;;5.78;;
20232;SDS011;37438;55.674;13.074;2023-12-28T13:44:00;30.70;;;5.88;;
20232;SDS011;37438;55.674;13.074;2023-12-28T13:47:08;28.67;;;4.45;;
20232;SDS011;37438;55.674;13.074;2023-12-28T13:50:13;34.28;;;4.85;;
20232;SDS011;37438;55.674;13.074;2023-12-28T13:53:17;29.75;;;5.47;;
20232;SDS011;37438;55.674;13.074;2023-12-28T13:56:22;48.95;;;6.32;;
20232;SDS011;37438;55.674;13.074;2023-12-28T13:59:27;35.75;;;6.55;;
20232;SDS011;37438;55.674;13.074;2023-12-28T14:02:32;30.08;;;4.63;;
20232;SDS011;37438;55.674;13.074;2023-12-28T14:05:38;42.53;;;6.40;;
20232;SDS011;37438;55.674;13.074;2023-12-28T14:08:44;31.00;;;5.25;;
20232;SDS011;37438;55.674;13.074;2023-12-28T14:11:48;49.30;;;7.85;;
20232;SDS011;37438;55.674;13.074;2023-12-28T14:14:53;51.42;;;8.05;;
20232;SDS011;37438;55.674;13.074;2023-12-28T14:17:58;30.73;;;5.93;;
20232;SDS011;37438;55.674;13.074;2023-12-28T14:21:03;36.78;;;6.22;;
20232;SDS011;37438;55.674;13.074;2023-12-28T14:24:08;45.90;;;6.65;;
20232;SDS011;37438;55.674;13.074;2023-12-28T14:27:13;46.08;;;7.65;;
20232;SDS011;37438;55.674;13.074;2023-12-28T14:30:18;61.38;;;9.88;;
20232;SDS011;37438;55.674;13.074;2023-12-28T14:33:24;56.20;;;10.30;;
20232;SDS011;37438;55.674;13.074;2023-12-28T14:36:30;46.45;;;8.07;;
20232;SDS011;37438;55.674;13.074;2023-12-28T14:39:35;43.67;;;6.43;;
20232;SDS011;37438;55.674;13.074;2023-12-28T14:42:42;43.45;;;8.65;;
20232;SDS011;37438;55.674;13.074;2023-12-28T14:45:46;42.70;;;9.07;;
20232;SDS011;37438;55.674;13.074;2023-12-28T14:48:52;45.17;;;7.63;;
20232;SDS011;37438;55.674;13.074;2023-12-28T14:51:57;63.65;;;10.27;;
20232;SDS011;37438;55.674;13.074;2023-12-28T14:55:02;46.88;;;8.85;;
20232;SDS011;37438;55.674;13.074;2023-12-28T14:58:07;56.10;;;9.55;;
20232;SDS011;37438;55.674;13.074;2023-12-28T15:01:13;47.72;;;7.75;;
20232;SDS011;37438;55.674;13.074;2023-12-28T15:04:19;51.53;;;9.23;;
20232;SDS011;37438;55.674;13.074;2023-12-28T15:07:29;48.80;;;9.35;;
20232;SDS011;37438;55.674;13.074;2023-12-28T15:10:34;41.88;;;6.95;;
20232;SDS011;37438;55.674;13.074;2023-12-28T15:13:39;53.28;;;9.02;;
20232;SDS011;37438;55.674;13.074;2023-12-28T15:16:45;57.95;;;9.63;;
20232;SDS011;37438;55.674;13.074;2023-12-28T15:19:50;53.17;;;8.05;;
20232;SDS011;37438;55.674;13.074;2023-12-28T15:22:56;51.00;;;8.32;;
20232;SDS011;37438;55.674;13.074;2023-12-28T15:29:05;53.15;;;8.13;;
20232;SDS011;37438;55.674;13.074;2023-12-28T15:32:10;46.83;;;8.02;;
20232;SDS011;37438;55.674;13.074;2023-12-28T15:35:16;60.97;;;12.23;;
20232;SDS011;37438;55.674;13.074;2023-12-28T15:41:26;50.95;;;8.25;;
20232;SDS011;37438;55.674;13.074;2023-12-28T15:44:30;53.50;;;8.90;;
20232;SDS011;37438;55.674;13.074;2023-12-28T15:47:35;48.45;;;8.40;;
20232;SDS011;37438;55.674;13.074;2023-12-28T15:50:40;39.28;;;7.28;;
20232;SDS011;37438;55.674;13.074;2023-12-28T15:53:46;41.88;;;6.95;;
20232;SDS011;37438;55.674;13.074;2023-12-28T15:56:51;43.78;;;7.40;;
20232;SDS011;37438;55.674;13.074;2023-12-28T15:59:56;53.38;;;8.25;;
20232;SDS011;37438;55.674;13.074;2023-12-28T16:03:15;43.22;;;7.88;;
20232;SDS011;37438;55.674;13.074;2023-12-28T16:06:20;48.17;;;6.63;;
20232;SDS011;37438;55.674;13.074;2023-12-28T16:09:24;32.88;;;7.03;;
20232;SDS011;37438;55.674;13.074;2023-12-28T16:15:35;40.88;;;7.25;;
20232;SDS011;37438;55.674;13.074;2023-12-28T16:18:42;43.08;;;7.78;;
20232;SDS011;37438;55.674;13.074;2023-12-28T16:21:47;44.08;;;7.85;;
20232;SDS011;37438;55.674;13.074;2023-12-28T16:27:57;50.13;;;9.10;;
20232;SDS011;37438;55.674;13.074;2023-12-28T16:31:03;50.10;;;7.85;;
20232;SDS011;37438;55.674;13.074;2023-12-28T16:34:08;60.30;;;9.57;;
20232;SDS011;37438;55.674;13.074;2023-12-28T16:37:16;59.95;;;9.02;;
20232;SDS011;37438;55.674;13.074;2023-12-28T16:40:21;61.22;;;9.63;;
20232;SDS011;37438;55.674;13.074;2023-12-28T16:46:33;63.10;;;9.85;;
20232;SDS011;37438;55.674;13.074;2023-12-28T16:49:38;46.42;;;8.73;;
20232;SDS011;37438;55.674;13.074;2023-12-28T16:52:43;53.40;;;8.13;;
20232;SDS011;37438;55.674;13.074;2023-12-28T16:55:48;56.08;;;9.65;;
20232;SDS011;37438;55.674;13.074;2023-12-28T16:58:53;44.58;;;8.20;;
20232;SDS011;37438;55.674;13.074;2023-12-28T17:01:58;44.35;;;8.85;;
20232;SDS011;37438;55.674;13.074;2023-12-28T17:05:03;50.88;;;10.18;;
20232;SDS011;37438;55.674;13.074;2023-12-28T17:08:09;71.28;;;11.30;;
20232;SDS011;37438;55.674;13.074;2023-12-28T17:11:17;45.35;;;7.50;;
20232;SDS011;37438;55.674;13.074;2023-12-28T17:14:21;51.30;;;8.63;;
20232;SDS011;37438;55.674;13.074;2023-12-28T17:17:27;45.28;;;8.30;;
20232;SDS011;37438;55.674;13.074;2023-12-28T17:20:32;55.08;;;8.50;;
20232;SDS011;37438;55.674;13.074;2023-12-28T17:23:37;47.00;;;7.78;;
20232;SDS011;37438;55.674;13.074;2023-12-28T17:26:46;47.63;;;7.80;;
20232;SDS011;37438;55.674;13.074;2023-12-28T17:29:59;41.95;;;7.63;;
20232;SDS011;37438;55.674;13.074;2023-12-28T17:33:08;47.63;;;9.57;;
20232;SDS011;37438;55.674;13.074;2023-12-28T17:36:14;46.25;;;7.20;;
20232;SDS011;37438;55.674;13.074;2023-12-28T17:39:20;44.83;;;8.25;;
20232;SDS011;37438;55.674;13.074;2023-12-28T17:42:29;48.55;;;8.98;;
20232;SDS011;37438;55.674;13.074;2023-12-28T17:45:40;49.08;;;7.13;;
20232;SDS011;37438;55.674;13.074;2023-12-28T17:48:48;53.97;;;7.53;;
20232;SDS011;37438;55.674;13.074;2023-12-28T17:51:57;52.45;;;8.05;;
20232;SDS011;37438;55.674;13.074;2023-12-28T17:55:02;46.75;;;7.95;;
20232;SDS011;37438;55.674;13.074;2023-12-28T17:58:08;38.35;;;9.25;;
20232;SDS011;37438;55.674;13.074;2023-12-28T18:01:13;48.15;;;8.38;;
20232;SDS011;37438;55.674;13.074;2023-12-28T18:04:21;36.03;;;6.45;;
20232;SDS011;37438;55.674;13.074;2023-12-28T18:07:27;54.78;;;7.97;;
20232;SDS011;37438;55.674;13.074;2023-12-28T18:10:31;54.55;;;9.73;;
20232;SDS011;37438;55.674;13.074;2023-12-28T18:13:36;61.45;;;10.63;;
20232;SDS011;37438;55.674;13.074;2023-12-28T18:16:42;49.65;;;9.75;;
20232;SDS011;37438;55.674;13.074;2023-12-28T18:19:46;40.97;;;7.03;;
20232;SDS011;37438;55.674;13.074;2023-12-28T18:22:52;54.45;;;8.73;;
20232;SDS011;37438;55.674;13.074;2023-12-28T18:29:02;58.72;;;8.98;;
20232;SDS011;37438;55.674;13.074;2023-12-28T18:32:06;50.40;;;6.97;;
20232;SDS011;37438;55.674;13.074;2023-12-28T18:35:11;44.17;;;7.35;;
20232;SDS011;37438;55.674;13.074;2023-12-28T18:38:17;40.33;;;7.70;;
20232;SDS011;37438;55.674;13.074;2023-12-28T18:41:25;44.85;;;6.97;;
20232;SDS011;37438;55.674;13.074;2023-12-28T18:44:30;50.90;;;8.40;;
20232;SDS011;37438;55.674;13.074;2023-12-28T18:47:37;32.35;;;6.78;;
20232;SDS011;37438;55.674;13.074;2023-12-28T18:50:44;46.22;;;8.88;;
20232;SDS011;37438;55.674;13.074;2023-12-28T18:53:49;52.65;;;9.30;;
20232;SDS011;37438;55.674;13.074;2023-12-28T18:56:54;44.88;;;7.65;;
20232;SDS011;37438;55.674;13.074;2023-12-28T18:59:59;46.20;;;7.10;;
20232;SDS011;37438;55.674;13.074;2023-12-28T19:03:04;54.30;;;7.75;;
20232;SDS011;37438;55.674;13.074;2023-12-28T19:06:11;39.20;;;6.95;;
20232;SDS011;37438;55.674;13.074;2023-12-28T19:09:16;50.58;;;6.97;;
20232;SDS011;37438;55.674;13.074;2023-12-28T19:12:21;39.00;;;7.07;;
20232;SDS011;37438;55.674;13.074;2023-12-28T19:15:26;51.13;;;9.02;;
20232;SDS011;37438;55.674;13.074;2023-12-28T19:18:31;43.45;;;7.13;;
20232;SDS011;37438;55.674;13.074;2023-12-28T19:21:37;50.25;;;8.02;;
20232;SDS011;37438;55.674;13.074;2023-12-28T19:24:42;38.58;;;6.40;;
20232;SDS011;37438;55.674;13.074;2023-12-28T19:30:53;42.67;;;6.70;;
20232;SDS011;37438;55.674;13.074;2023-12-28T19:37:03;41.50;;;7.43;;
20232;SDS011;37438;55.674;13.074;2023-12-28T19:43:13;36.20;;;5.45;;
20232;SDS011;37438;55.674;13.074;2023-12-28T19:46:19;32.47;;;4.70;;
20232;SDS011;37438;55.674;13.074;2023-12-28T19:49:24;31.02;;;7.25;;